LEAL/ALC METAR and TAF weather

Enter ICAO airport designator
Station Type Date Time Source
LEAL METAR 2019/04/19 10:00 UTC NOAA

LEAL 191000Z 27008KT 250V320 9999 -RA FEW040 OVC067 15/12 Q1015 NOSIG


Station Type Date Time Source
LEAL Decoded METAR 2019/04/19 10:00 UTC NOAA

Alicante / El Altet, Spain (LEAL) 38-17N 000-33W 31M
Apr 19, 2019 - 06:00 AM EDT / 2019.04.19 1000 UTC
Wind: from the W (270 degrees) at 9 MPH (8 KT) (direction variable):0
Visibility: greater than 7 mile(s):0
Sky conditions: overcast
Weather: light rain
Temperature: 59 F (15 C)
Dew Point: 53 F (12 C)
Relative Humidity: 82%
Pressure (altimeter): 29.97 in. Hg (1015 hPa)
ob: LEAL 191000Z 27008KT 250V320 9999 -RA FEW040 OVC067 15/12 Q1015 NOSIG
cycle: 10

Station Type Date Time Source
LEAL TAF 2019/04/19 06:27 UTC NOAA

TAF TAF LEAL 190500Z 1906/2006 VRB04KT 9999 BKN040 TX20/1912Z TN13/1906Z PROB40
TEMPO 1906/1908 2000 SHRA BKN008 SCT020TCU
BECMG 1909/1911 25008KT
BECMG 1916/1918 05020KT PROB40
TEMPO 1918/2004 TSRA SCT020CB
TEMPO 1918/1924 05020G35KT

Example: see airport list